Time;durP1;ratioP1;P1;durP2;ratioP2;P2;SDS_P1;SDS_P2;PMS_P1;PMS_P2;Temp;Humidity;BMP_temperature;BMP_pressure;BME280_temperature;BME280_humidity;BME280_pressure;Samples;Min_cycle;Max_cycle;Signal;HPM_P1;HPM_P2
2023/08/16 00:02:18;;;;;;;8.30;5.05;;;;;;;;;;5037574;28;20064;-70
2023/08/16 00:04:45;;;;;;;8.90;6.05;;;;;;;;;;5047637;28;20503;-69
2023/08/16 00:07:11;;;;;;;6.57;5.32;;;;;;;;;;5051007;28;20052;-69
2023/08/16 00:09:38;;;;;;;9.77;5.80;;;;;;;;;;5039546;28;20060;-69
2023/08/16 00:12:05;;;;;;;9.13;6.35;;;;;;;;;;5038464;28;20032;-70
2023/08/16 00:14:30;;;;;;;11.30;6.10;;;;;;;;;;5043043;28;20021;-70
2023/08/16 00:16:57;;;;;;;11.65;6.75;;;;;;;;;;5049774;28;20036;-70
2023/08/16 00:19:24;;;;;;;9.63;6.70;;;;;;;;;;5051304;28;20497;-70
2023/08/16 00:21:50;;;;;;;9.32;6.68;;;;;;;;;;5050735;28;20032;-70
2023/08/16 00:24:16;;;;;;;8.68;6.18;;;;;;;;;;5047938;28;20036;-69
2023/08/16 00:26:43;;;;;;;6.78;5.50;;;;;;;;;;5027816;28;20168;-69
2023/08/16 00:29:08;;;;;;;7.13;5.15;;;;;;;;;;5031239;28;20037;-69
2023/08/16 00:31:34;;;;;;;7.82;6.00;;;;;;;;;;5044732;28;20407;-68
2023/08/16 00:34:00;;;;;;;7.93;5.47;;;;;;;;;;5034252;28;20103;-69
2023/08/16 00:36:26;;;;;;;10.80;5.53;;;;;;;;;;5041502;28;20053;-70
2023/08/16 00:38:52;;;;;;;9.27;6.10;;;;;;;;;;5029795;28;20025;-70
2023/08/16 00:41:19;;;;;;;8.63;5.80;;;;;;;;;;5031687;28;20450;-70
2023/08/16 00:43:44;;;;;;;6.63;5.55;;;;;;;;;;5031016;28;20091;-70
2023/08/16 00:46:12;;;;;;;9.70;5.95;;;;;;;;;;5031223;28;20045;-70
2023/08/16 00:48:43;;;;;;;7.22;5.60;;;;;;;;;;5029645;28;20025;-70
2023/08/16 00:51:10;;;;;;;7.85;5.18;;;;;;;;;;5033126;28;20033;-70
2023/08/16 00:53:38;;;;;;;8.20;5.25;;;;;;;;;;5050528;28;20052;-70
2023/08/16 00:56:05;;;;;;;12.63;5.97;;;;;;;;;;5048805;28;20059;-70
2023/08/16 00:58:31;;;;;;;7.80;5.82;;;;;;;;;;5049275;28;20494;-70
2023/08/16 01:00:59;;;;;;;10.27;6.00;;;;;;;;;;5066003;28;20032;-69
2023/08/16 01:03:25;;;;;;;10.52;5.75;;;;;;;;;;5050388;28;20032;-69
2023/08/16 01:05:50;;;;;;;8.38;6.10;;;;;;;;;;5048848;28;20041;-69
2023/08/16 01:08:16;;;;;;;9.30;5.90;;;;;;;;;;5050282;28;20487;-69
2023/08/16 01:10:57;;;;;;;10.80;5.90;;;;;;;;;;5049071;28;20415;-70
2023/08/16 01:13:39;;;;;;;8.75;5.93;;;;;;;;;;5041241;28;20053;-70
2023/08/16 01:16:08;;;;;;;8.27;6.05;;;;;;;;;;5043668;28;20372;-70
2023/08/16 01:18:37;;;;;;;12.02;6.30;;;;;;;;;;5046959;28;20028;-70
2023/08/16 01:21:06;;;;;;;8.43;6.90;;;;;;;;;;5038355;28;20029;-69
2023/08/16 01:23:43;;;;;;;9.60;6.50;;;;;;;;;;5028860;28;20031;-69
2023/08/16 01:26:42;;;;;;;15.18;6.75;;;;;;;;;;5037935;28;20051;-69
2023/08/16 01:29:09;;;;;;;8.27;6.25;;;;;;;;;;4987286;28;20092;-71
2023/08/16 01:31:37;;;;;;;12.63;6.10;;;;;;;;;;5010157;28;20026;-70
2023/08/16 01:34:04;;;;;;;8.50;6.22;;;;;;;;;;5028287;28;20511;-70
2023/08/16 01:36:30;;;;;;;10.35;5.72;;;;;;;;;;5024719;28;20040;-69
2023/08/16 01:38:56;;;;;;;8.85;6.80;;;;;;;;;;5008684;28;20125;-69
2023/08/16 01:41:36;;;;;;;17.67;6.47;;;;;;;;;;5010027;28;20104;-70
2023/08/16 01:44:02;;;;;;;11.43;6.22;;;;;;;;;;5011573;28;20042;-70
2023/08/16 01:46:29;;;;;;;11.13;6.13;;;;;;;;;;5043830;28;20479;-69
2023/08/16 01:48:57;;;;;;;8.93;6.30;;;;;;;;;;5048164;28;20052;-70
2023/08/16 01:51:24;;;;;;;9.27;5.75;;;;;;;;;;5043224;28;20025;-69
2023/08/16 01:53:52;;;;;;;8.70;5.45;;;;;;;;;;5028039;28;20029;-69
2023/08/16 01:56:18;;;;;;;9.00;5.63;;;;;;;;;;5028072;28;20817;-69
2023/08/16 01:58:44;;;;;;;11.10;5.80;;;;;;;;;;5028402;28;20578;-69
2023/08/16 02:01:10;;;;;;;9.00;5.40;;;;;;;;;;5027440;28;20022;-69
2023/08/16 02:03:36;;;;;;;10.02;5.65;;;;;;;;;;5027976;28;20053;-69
2023/08/16 02:06:02;;;;;;;8.18;5.85;;;;;;;;;;5011059;28;20029;-69
2023/08/16 02:08:28;;;;;;;10.80;6.35;;;;;;;;;;5027755;28;20091;-69
2023/08/16 02:10:54;;;;;;;11.77;6.32;;;;;;;;;;5028047;28;20495;-69
2023/08/16 02:13:20;;;;;;;8.25;6.03;;;;;;;;;;5029156;28;20033;-69
2023/08/16 02:15:45;;;;;;;9.90;4.90;;;;;;;;;;5027792;28;20025;-69
2023/08/16 02:18:12;;;;;;;8.25;4.82;;;;;;;;;;5029032;28;20116;-70
2023/08/16 02:20:39;;;;;;;8.10;5.88;;;;;;;;;;5027602;28;20025;-69
2023/08/16 02:23:06;;;;;;;8.10;5.97;;;;;;;;;;5041164;28;20057;-69
2023/08/16 02:25:31;;;;;;;9.90;6.28;;;;;;;;;;5037145;28;20025;-69
2023/08/16 02:27:57;;;;;;;13.65;6.43;;;;;;;;;;5027490;28;20030;-69
2023/08/16 02:30:23;;;;;;;9.98;6.07;;;;;;;;;;5027641;28;20025;-69
2023/08/16 02:32:49;;;;;;;8.20;5.85;;;;;;;;;;5030862;28;20117;-69
2023/08/16 02:35:14;;;;;;;9.57;5.50;;;;;;;;;;5026981;28;20475;-69
2023/08/16 02:37:42;;;;;;;7.53;5.78;;;;;;;;;;5028633;28;20088;-69
2023/08/16 02:40:08;;;;;;;10.30;6.22;;;;;;;;;;5028527;28;20033;-69
2023/08/16 02:42:36;;;;;;;10.38;6.78;;;;;;;;;;5043941;28;20033;-71
2023/08/16 02:45:02;;;;;;;11.15;6.38;;;;;;;;;;5027091;28;20037;-70
2023/08/16 02:47:28;;;;;;;6.85;5.88;;;;;;;;;;5027210;28;20044;-69
2023/08/16 02:49:54;;;;;;;12.88;6.68;;;;;;;;;;5025888;28;20111;-70
2023/08/16 02:52:20;;;;;;;8.45;6.22;;;;;;;;;;5038308;28;20033;-70
2023/08/16 02:54:47;;;;;;;10.43;5.88;;;;;;;;;;5038396;28;20024;-70
2023/08/16 02:57:13;;;;;;;9.55;6.78;;;;;;;;;;5031847;28;20045;-69
2023/08/16 02:59:41;;;;;;;8.60;6.45;;;;;;;;;;5028482;28;20083;-69
2023/08/16 03:02:08;;;;;;;10.73;6.97;;;;;;;;;;5028193;28;20523;-69
2023/08/16 03:04:38;;;;;;;10.00;7.07;;;;;;;;;;5036499;28;20089;-69
2023/08/16 03:07:09;;;;;;;11.68;7.25;;;;;;;;;;5043755;28;20522;-69
2023/08/16 03:09:36;;;;;;;12.70;7.32;;;;;;;;;;5046619;28;20156;-70
2023/08/16 03:12:03;;;;;;;11.20;6.70;;;;;;;;;;5029579;28;20060;-69
2023/08/16 03:14:29;;;;;;;12.38;7.72;;;;;;;;;;5030354;28;20029;-69
2023/08/16 03:16:57;;;;;;;10.90;7.90;;;;;;;;;;5041810;28;20025;-71
2023/08/16 03:19:23;;;;;;;8.23;6.78;;;;;;;;;;5050549;28;20037;-70
2023/08/16 03:21:49;;;;;;;9.18;6.18;;;;;;;;;;5040556;28;20441;-69
2023/08/16 03:24:15;;;;;;;8.27;6.80;;;;;;;;;;5043116;28;20037;-70
2023/08/16 03:26:40;;;;;;;11.70;7.55;;;;;;;;;;5029242;28;20104;-69
2023/08/16 03:29:06;;;;;;;12.25;8.10;;;;;;;;;;5030058;28;20037;-70
2023/08/16 03:31:34;;;;;;;9.73;7.35;;;;;;;;;;5045651;28;20546;-70
2023/08/16 03:34:01;;;;;;;10.05;7.07;;;;;;;;;;5029012;28;20116;-70
2023/08/16 03:36:27;;;;;;;8.45;6.22;;;;;;;;;;5027918;28;20497;-69
2023/08/16 03:38:53;;;;;;;12.07;6.95;;;;;;;;;;5025512;28;20083;-70
2023/08/16 03:41:20;;;;;;;10.80;7.15;;;;;;;;;;5024324;28;20033;-70
2023/08/16 03:43:46;;;;;;;12.68;7.10;;;;;;;;;;5054197;28;20037;-70
2023/08/16 03:46:13;;;;;;;8.93;7.03;;;;;;;;;;5029575;28;20394;-70
2023/08/16 03:48:39;;;;;;;11.82;7.55;;;;;;;;;;5029470;28;20518;-70
2023/08/16 03:51:05;;;;;;;8.60;7.22;;;;;;;;;;5021292;28;20033;-69
2023/08/16 03:53:31;;;;;;;16.85;8.13;;;;;;;;;;5033675;28;20029;-71
2023/08/16 03:55:58;;;;;;;9.95;7.43;;;;;;;;;;5025934;28;20026;-70
2023/08/16 03:58:25;;;;;;;10.30;7.47;;;;;;;;;;5028370;28;20285;-70
2023/08/16 04:00:51;;;;;;;11.50;7.72;;;;;;;;;;5031112;28;20629;-70
2023/08/16 04:03:19;;;;;;;11.35;7.38;;;;;;;;;;5032085;28;20034;-70
2023/08/16 04:05:44;;;;;;;14.55;7.70;;;;;;;;;;5029607;28;20495;-71
2023/08/16 04:08:13;;;;;;;15.00;7.47;;;;;;;;;;5031107;28;20057;-70
2023/08/16 04:10:39;;;;;;;12.07;6.82;;;;;;;;;;5037870;28;20029;-69
2023/08/16 04:13:05;;;;;;;12.68;5.97;;;;;;;;;;5030449;28;20483;-70
2023/08/16 04:15:32;;;;;;;8.18;6.22;;;;;;;;;;5044340;28;20044;-70
2023/08/16 04:17:59;;;;;;;15.70;7.20;;;;;;;;;;5023449;28;20124;-69
2023/08/16 04:20:24;;;;;;;10.27;6.70;;;;;;;;;;5046763;28;20143;-70
2023/08/16 04:22:51;;;;;;;8.40;6.63;;;;;;;;;;5043840;28;20045;-71
2023/08/16 04:25:16;;;;;;;36.90;11.93;;;;;;;;;;5027960;28;20035;-69
2023/08/16 04:27:43;;;;;;;19.05;8.00;;;;;;;;;;5031532;28;20059;-71
2023/08/16 04:30:10;;;;;;;11.65;6.55;;;;;;;;;;5032202;28;20040;-70
2023/08/16 04:32:36;;;;;;;20.00;8.73;;;;;;;;;;5026855;28;20129;-72
2023/08/16 04:35:03;;;;;;;16.35;7.68;;;;;;;;;;5024700;28;20388;-71
2023/08/16 04:37:29;;;;;;;29.48;11.25;;;;;;;;;;5031023;28;20479;-70
2023/08/16 04:39:55;;;;;;;27.05;10.73;;;;;;;;;;5028715;28;20022;-71
2023/08/16 04:42:21;;;;;;;13.35;7.38;;;;;;;;;;5020253;28;20268;-72
2023/08/16 04:44:48;;;;;;;11.77;7.20;;;;;;;;;;5043101;28;20026;-71
2023/08/16 04:47:14;;;;;;;20.88;9.00;;;;;;;;;;5024617;28;20415;-71
2023/08/16 04:49:40;;;;;;;16.00;6.85;;;;;;;;;;5025783;28;20029;-71
2023/08/16 04:52:06;;;;;;;16.30;8.40;;;;;;;;;;5020814;28;20492;-71
2023/08/16 04:54:32;;;;;;;11.63;7.03;;;;;;;;;;5028187;28;20036;-70
2023/08/16 04:56:58;;;;;;;8.80;6.78;;;;;;;;;;5027891;28;20084;-69
2023/08/16 04:59:24;;;;;;;15.52;6.68;;;;;;;;;;5043018;28;20048;-70
2023/08/16 05:01:50;;;;;;;9.43;6.20;;;;;;;;;;5030198;28;20603;-70
2023/08/16 05:04:15;;;;;;;8.80;5.95;;;;;;;;;;5025299;28;20083;-70
2023/08/16 05:06:41;;;;;;;10.95;5.82;;;;;;;;;;5028575;28;20029;-69
2023/08/16 05:09:07;;;;;;;10.45;5.53;;;;;;;;;;5030558;28;20057;-70
2023/08/16 05:11:35;;;;;;;7.72;5.90;;;;;;;;;;5031442;28;20041;-70
2023/08/16 05:14:00;;;;;;;10.02;5.55;;;;;;;;;;5031606;28;20076;-70
2023/08/16 05:16:26;;;;;;;11.27;5.40;;;;;;;;;;5016013;28;20064;-75
2023/08/16 05:18:57;;;;;;;10.32;5.72;;;;;;;;;;5031320;28;20025;-69
2023/08/16 05:21:24;;;;;;;10.65;6.22;;;;;;;;;;5031749;28;20095;-70
2023/08/16 05:23:50;;;;;;;11.43;6.53;;;;;;;;;;5032926;28;20108;-70
2023/08/16 05:26:16;;;;;;;9.40;5.90;;;;;;;;;;5032578;28;20369;-70
2023/08/16 05:28:41;;;;;;;10.93;6.00;;;;;;;;;;5033027;28;20108;-70
2023/08/16 05:31:11;;;;;;;9.55;6.60;;;;;;;;;;5032999;28;20041;-70
2023/08/16 05:33:38;;;;;;;10.40;5.90;;;;;;;;;;5032635;28;20079;-70
2023/08/16 05:36:04;;;;;;;8.88;5.70;;;;;;;;;;5032823;28;20037;-70
2023/08/16 05:38:30;;;;;;;8.63;5.53;;;;;;;;;;5031649;28;20029;-70
2023/08/16 05:40:57;;;;;;;10.93;6.28;;;;;;;;;;5032692;28;20425;-70
2023/08/16 05:43:23;;;;;;;7.93;5.20;;;;;;;;;;5032879;28;20022;-70
2023/08/16 05:45:49;;;;;;;7.53;5.40;;;;;;;;;;5040714;28;20017;-70
2023/08/16 05:48:14;;;;;;;9.73;5.38;;;;;;;;;;5032864;28;20120;-70
2023/08/16 05:50:41;;;;;;;7.03;5.32;;;;;;;;;;5032498;28;20418;-71
2023/08/16 05:53:09;;;;;;;8.48;5.82;;;;;;;;;;5032383;28;20141;-70
2023/08/16 05:55:34;;;;;;;8.07;5.32;;;;;;;;;;5041463;28;20089;-70
2023/08/16 05:58:00;;;;;;;8.27;5.72;;;;;;;;;;5032953;28;20034;-69
2023/08/16 06:00:26;;;;;;;6.75;5.90;;;;;;;;;;5032969;28;20052;-68
2023/08/16 06:02:52;;;;;;;12.30;6.38;;;;;;;;;;5047631;28;20029;-71
2023/08/16 06:05:19;;;;;;;8.07;5.00;;;;;;;;;;5032153;28;20079;-70
2023/08/16 06:07:45;;;;;;;11.48;5.80;;;;;;;;;;5032185;28;20200;-69
2023/08/16 06:10:11;;;;;;;13.63;6.03;;;;;;;;;;5030454;28;20021;-70
2023/08/16 06:12:36;;;;;;;11.65;8.27;;;;;;;;;;5032095;28;20449;-70
2023/08/16 06:15:03;;;;;;;8.55;5.93;;;;;;;;;;5031933;28;20017;-72
2023/08/16 06:17:28;;;;;;;8.68;5.25;;;;;;;;;;5027500;28;20094;-71
2023/08/16 06:19:54;;;;;;;10.85;5.40;;;;;;;;;;5022686;28;20060;-71
2023/08/16 06:22:20;;;;;;;10.10;5.78;;;;;;;;;;5031858;28;20037;-71
2023/08/16 06:24:46;;;;;;;9.23;5.78;;;;;;;;;;5031837;28;20033;-73
2023/08/16 06:27:12;;;;;;;14.25;5.28;;;;;;;;;;5027071;28;20407;-71
2023/08/16 06:29:37;;;;;;;10.15;5.43;;;;;;;;;;5028142;28;20018;-71
2023/08/16 06:32:04;;;;;;;9.07;5.38;;;;;;;;;;5031500;28;20041;-72
2023/08/16 06:34:30;;;;;;;8.48;4.90;;;;;;;;;;5031753;28;20018;-71
2023/08/16 06:36:56;;;;;;;6.07;5.22;;;;;;;;;;5030045;28;20037;-73
2023/08/16 06:39:22;;;;;;;6.57;5.00;;;;;;;;;;5031494;28;20406;-72
2023/08/16 06:41:48;;;;;;;8.27;5.38;;;;;;;;;;5030251;28;20033;-71
2023/08/16 06:44:14;;;;;;;9.60;5.07;;;;;;;;;;5031497;28;20025;-69
2023/08/16 06:46:41;;;;;;;7.60;5.00;;;;;;;;;;5032159;28;20475;-70
2023/08/16 06:49:06;;;;;;;9.32;5.22;;;;;;;;;;5031439;28;20021;-70
2023/08/16 06:51:32;;;;;;;7.70;5.43;;;;;;;;;;5039599;28;20087;-70
2023/08/16 06:53:57;;;;;;;10.50;5.13;;;;;;;;;;5030283;28;20022;-69
2023/08/16 06:56:23;;;;;;;7.95;5.10;;;;;;;;;;5030824;28;20042;-70
2023/08/16 06:58:50;;;;;;;8.77;5.32;;;;;;;;;;5031239;28;20033;-70
2023/08/16 07:01:15;;;;;;;8.15;5.10;;;;;;;;;;5038037;28;20109;-69
2023/08/16 07:03:41;;;;;;;8.10;4.88;;;;;;;;;;5031382;28;20391;-70
2023/08/16 07:06:07;;;;;;;8.35;4.57;;;;;;;;;;5031226;28;20494;-71
2023/08/16 07:08:33;;;;;;;7.35;4.90;;;;;;;;;;5031333;28;20032;-71
2023/08/16 07:10:59;;;;;;;9.60;5.20;;;;;;;;;;5029743;28;20464;-70
2023/08/16 07:13:24;;;;;;;7.85;4.88;;;;;;;;;;5030640;28;20037;-70
2023/08/16 07:15:50;;;;;;;6.15;4.90;;;;;;;;;;5030284;28;20083;-69
2023/08/16 07:18:16;;;;;;;8.35;5.00;;;;;;;;;;5031343;28;20538;-70
2023/08/16 07:20:43;;;;;;;9.60;4.80;;;;;;;;;;5039405;28;20335;-71
2023/08/16 07:23:09;;;;;;;8.00;5.03;;;;;;;;;;5014661;28;20028;-70
2023/08/16 07:25:35;;;;;;;5.70;4.47;;;;;;;;;;5022452;28;20467;-70
2023/08/16 07:28:00;;;;;;;6.88;4.63;;;;;;;;;;5031135;28;20063;-70
2023/08/16 07:30:26;;;;;;;5.45;4.80;;;;;;;;;;5030822;28;20041;-70
2023/08/16 07:32:52;;;;;;;7.07;4.88;;;;;;;;;;5030529;28;20025;-70
2023/08/16 07:35:18;;;;;;;6.60;4.97;;;;;;;;;;5030439;28;20499;-69
2023/08/16 07:37:44;;;;;;;5.55;4.55;;;;;;;;;;5030877;28;20032;-69
2023/08/16 07:40:10;;;;;;;8.18;4.80;;;;;;;;;;5028793;28;20044;-69
2023/08/16 07:42:36;;;;;;;6.05;4.63;;;;;;;;;;5030692;28;20021;-69
2023/08/16 07:45:03;;;;;;;7.88;5.20;;;;;;;;;;5030365;28;20033;-68
2023/08/16 07:47:29;;;;;;;7.75;4.53;;;;;;;;;;5030586;28;20021;-69
2023/08/16 07:49:55;;;;;;;6.93;4.85;;;;;;;;;;5030311;28;20453;-68
2023/08/16 07:52:21;;;;;;;7.72;5.07;;;;;;;;;;5029239;28;20152;-69
2023/08/16 07:54:47;;;;;;;7.28;5.03;;;;;;;;;;5030787;28;20082;-69
2023/08/16 07:57:12;;;;;;;5.68;4.28;;;;;;;;;;5031303;28;20113;-69
2023/08/16 07:59:41;;;;;;;9.20;4.78;;;;;;;;;;5031008;28;20037;-69
2023/08/16 08:02:07;;;;;;;6.30;4.95;;;;;;;;;;5030318;28;20475;-67
2023/08/16 08:04:33;;;;;;;6.20;4.32;;;;;;;;;;5033387;28;20036;-69
2023/08/16 08:06:59;;;;;;;8.38;5.18;;;;;;;;;;5030194;28;20029;-68
2023/08/16 08:09:26;;;;;;;10.05;5.00;;;;;;;;;;5030878;28;20060;-69
2023/08/16 08:11:51;;;;;;;6.57;4.65;;;;;;;;;;5030805;28;20021;-68
2023/08/16 08:14:17;;;;;;;6.88;5.07;;;;;;;;;;5030683;28;20048;-69
2023/08/16 08:16:44;;;;;;;9.45;4.75;;;;;;;;;;5029626;28;20061;-70
2023/08/16 08:19:10;;;;;;;9.60;4.28;;;;;;;;;;5030893;28;20025;-68
2023/08/16 08:21:35;;;;;;;8.18;6.45;;;;;;;;;;5030810;28;20424;-68
2023/08/16 08:24:01;;;;;;;7.88;5.05;;;;;;;;;;5031247;28;20029;-68
2023/08/16 08:26:27;;;;;;;4.90;4.28;;;;;;;;;;5030317;28;20025;-69
2023/08/16 08:28:53;;;;;;;8.00;4.80;;;;;;;;;;5033270;28;20033;-68
2023/08/16 08:31:18;;;;;;;8.30;4.90;;;;;;;;;;5033846;28;20475;-69
2023/08/16 08:33:47;;;;;;;9.15;4.75;;;;;;;;;;5033361;28;20033;-70
2023/08/16 08:36:13;;;;;;;6.25;4.63;;;;;;;;;;5033934;28;20360;-69
2023/08/16 08:38:41;;;;;;;6.38;5.03;;;;;;;;;;5032177;28;20033;-68
2023/08/16 08:41:06;;;;;;;7.20;4.75;;;;;;;;;;5033888;28;20029;-68
2023/08/16 08:43:39;;;;;;;7.75;4.50;;;;;;;;;;5033252;28;20388;-67
2023/08/16 08:46:06;;;;;;;6.88;4.90;;;;;;;;;;5033194;28;20403;-68
2023/08/16 08:48:32;;;;;;;8.23;4.68;;;;;;;;;;5033671;28;20018;-69
2023/08/16 08:51:00;;;;;;;10.07;5.10;;;;;;;;;;5033332;28;20033;-68
2023/08/16 08:53:27;;;;;;;8.52;4.57;;;;;;;;;;5033029;28;20017;-68
2023/08/16 08:56:07;;;;;;;7.93;4.60;;;;;;;;;;5032902;28;20039;-69
2023/08/16 08:58:34;;;;;;;6.30;4.68;;;;;;;;;;5033238;28;20055;-68
2023/08/16 09:01:00;;;;;;;6.53;4.40;;;;;;;;;;5041413;28;20633;-69
2023/08/16 09:03:30;;;;;;;5.80;4.63;;;;;;;;;;5033305;28;20029;-68
2023/08/16 09:05:56;;;;;;;5.60;4.40;;;;;;;;;;5032910;28;20027;-68
2023/08/16 09:08:26;;;;;;;7.82;4.60;;;;;;;;;;5032987;28;20034;-68
2023/08/16 09:10:52;;;;;;;9.35;4.72;;;;;;;;;;5032882;28;20105;-68
2023/08/16 09:13:19;;;;;;;6.72;4.75;;;;;;;;;;5032853;28;20047;-69
2023/08/16 09:15:44;;;;;;;7.60;4.45;;;;;;;;;;5032798;28;20104;-69
2023/08/16 09:18:16;;;;;;;6.25;4.57;;;;;;;;;;5032793;28;20474;-69
2023/08/16 09:20:45;;;;;;;6.40;4.00;;;;;;;;;;5037168;28;20033;-68
2023/08/16 09:23:15;;;;;;;6.60;4.32;;;;;;;;;;5033265;28;20029;-68
2023/08/16 09:25:41;;;;;;;8.65;4.30;;;;;;;;;;5032641;28;20021;-69
2023/08/16 09:28:11;;;;;;;6.63;4.15;;;;;;;;;;5032662;28;20026;-70
2023/08/16 09:30:38;;;;;;;7.05;4.80;;;;;;;;;;5032832;28;20025;-69
2023/08/16 09:33:04;;;;;;;6.85;4.80;;;;;;;;;;5032380;28;20041;-68
2023/08/16 09:35:32;;;;;;;8.98;4.65;;;;;;;;;;5033289;28;20048;-70
2023/08/16 09:37:58;;;;;;;5.97;4.30;;;;;;;;;;5032461;28;20108;-70
2023/08/16 09:40:24;;;;;;;7.68;5.25;;;;;;;;;;5033203;28;20128;-69
2023/08/16 09:42:50;;;;;;;10.48;4.75;;;;;;;;;;5032785;28;20052;-71
2023/08/16 09:45:26;;;;;;;6.15;5.05;;;;;;;;;;5032819;28;20401;-68
2023/08/16 09:47:51;;;;;;;7.57;4.82;;;;;;;;;;5032923;28;20127;-68
2023/08/16 09:50:21;;;;;;;10.02;5.25;;;;;;;;;;5032595;28;20487;-67
2023/08/16 09:52:50;;;;;;;6.45;4.55;;;;;;;;;;5031027;28;20037;-68
2023/08/16 09:55:26;;;;;;;5.80;4.90;;;;;;;;;;5030784;28;20026;-69
2023/08/16 09:57:54;;;;;;;6.95;5.38;;;;;;;;;;5032421;28;20040;-69
2023/08/16 10:00:20;;;;;;;8.13;5.10;;;;;;;;;;5031767;28;20100;-68
2023/08/16 10:02:48;;;;;;;6.28;4.85;;;;;;;;;;5030552;28;20167;-68
2023/08/16 10:05:16;;;;;;;6.63;4.85;;;;;;;;;;5031056;28;20025;-69
2023/08/16 10:07:42;;;;;;;8.45;5.03;;;;;;;;;;5032183;28;20037;-69
2023/08/16 10:10:12;;;;;;;7.47;4.72;;;;;;;;;;5031586;28;20108;-69
2023/08/16 10:12:38;;;;;;;7.55;4.95;;;;;;;;;;5031846;28;20040;-69
2023/08/16 10:15:04;;;;;;;7.07;5.13;;;;;;;;;;5032260;28;20049;-69
2023/08/16 10:17:32;;;;;;;5.82;4.18;;;;;;;;;;5032517;28;20064;-68
2023/08/16 10:20:04;;;;;;;7.45;4.63;;;;;;;;;;5032159;28;20094;-70
2023/08/16 10:22:41;;;;;;;8.48;4.60;;;;;;;;;;5032491;28;20052;-70
2023/08/16 10:25:17;;;;;;;7.55;4.95;;;;;;;;;;5031930;28;20083;-69
2023/08/16 10:27:44;;;;;;;7.05;5.00;;;;;;;;;;5031106;28;20033;-69
2023/08/16 10:30:18;;;;;;;10.23;4.75;;;;;;;;;;5031790;28;20033;-69
2023/08/16 10:32:46;;;;;;;6.57;4.60;;;;;;;;;;5031822;28;20041;-69
2023/08/16 10:35:13;;;;;;;6.97;5.00;;;;;;;;;;5033212;28;20094;-69
2023/08/16 10:37:39;;;;;;;6.68;4.57;;;;;;;;;;5038327;28;20029;-70
2023/08/16 10:40:17;;;;;;;7.07;4.82;;;;;;;;;;5031521;28;20033;-68
2023/08/16 10:42:59;;;;;;;6.00;4.65;;;;;;;;;;5031715;28;20040;-69
2023/08/16 10:45:30;;;;;;;7.00;4.38;;;;;;;;;;5031627;28;20541;-70
2023/08/16 10:47:56;;;;;;;9.75;5.07;;;;;;;;;;5031813;28;20043;-69
2023/08/16 10:50:32;;;;;;;6.13;4.40;;;;;;;;;;5031163;28;20429;-69
2023/08/16 10:53:01;;;;;;;8.00;5.28;;;;;;;;;;5031736;28;20112;-69
2023/08/16 10:55:27;;;;;;;6.95;5.40;;;;;;;;;;5031420;28;20031;-68
2023/08/16 10:57:54;;;;;;;5.65;4.85;;;;;;;;;;5031888;28;20037;-69
2023/08/16 11:00:29;;;;;;;7.50;4.68;;;;;;;;;;5033765;28;20030;-68
2023/08/16 11:02:54;;;;;;;7.95;4.88;;;;;;;;;;5045131;28;20039;-69
2023/08/16 11:05:21;;;;;;;9.77;5.45;;;;;;;;;;5031497;28;20104;-68
2023/08/16 11:07:47;;;;;;;8.90;5.15;;;;;;;;;;5031333;28;20056;-70
2023/08/16 11:10:13;;;;;;;5.63;4.78;;;;;;;;;;5031503;28;20021;-70
2023/08/16 11:12:39;;;;;;;12.18;6.90;;;;;;;;;;5031290;28;20033;-68
2023/08/16 11:15:06;;;;;;;5.63;4.90;;;;;;;;;;5034710;28;20030;-69
2023/08/16 11:17:32;;;;;;;5.72;4.60;;;;;;;;;;5031714;28;20117;-70
2023/08/16 11:20:01;;;;;;;5.35;4.40;;;;;;;;;;5031496;28;20183;-69
2023/08/16 11:22:28;;;;;;;8.00;4.88;;;;;;;;;;5046381;28;20030;-69
2023/08/16 11:24:53;;;;;;;7.68;4.95;;;;;;;;;;5037148;28;20029;-68
2023/08/16 11:27:22;;;;;;;6.85;4.53;;;;;;;;;;5033473;28;20104;-68
2023/08/16 11:29:54;;;;;;;9.90;5.25;;;;;;;;;;5027515;28;20025;-69
2023/08/16 11:32:36;;;;;;;6.28;4.28;;;;;;;;;;5029162;28;20041;-69
2023/08/16 11:35:08;;;;;;;4.90;4.22;;;;;;;;;;5031392;28;20056;-69
2023/08/16 11:37:35;;;;;;;7.18;5.18;;;;;;;;;;5031543;28;20044;-69
2023/08/16 11:40:07;;;;;;;6.65;4.53;;;;;;;;;;5031487;28;20025;-68
2023/08/16 11:42:33;;;;;;;8.60;4.70;;;;;;;;;;5046036;28;20045;-69
2023/08/16 11:44:59;;;;;;;8.23;4.35;;;;;;;;;;5037560;28;20032;-68
2023/08/16 11:47:25;;;;;;;6.47;4.32;;;;;;;;;;5031386;28;20033;-69
2023/08/16 11:49:51;;;;;;;5.63;4.05;;;;;;;;;;5029922;28;20428;-68
2023/08/16 11:52:23;;;;;;;8.45;3.88;;;;;;;;;;5031212;28;20034;-68
2023/08/16 11:55:07;;;;;;;7.05;4.30;;;;;;;;;;5031377;28;20402;-69
2023/08/16 11:57:42;;;;;;;5.30;4.35;;;;;;;;;;5031142;28;20041;-68
2023/08/16 12:00:08;;;;;;;8.32;4.22;;;;;;;;;;5031137;28;20076;-70
2023/08/16 12:02:36;;;;;;;7.40;4.05;;;;;;;;;;5033801;28;20104;-70
2023/08/16 12:05:11;;;;;;;4.93;4.28;;;;;;;;;;5034657;28;20106;-69
2023/08/16 12:07:48;;;;;;;7.28;4.43;;;;;;;;;;5035470;28;20030;-69
2023/08/16 12:10:27;;;;;;;5.50;4.28;;;;;;;;;;5035062;28;20037;-69
2023/08/16 12:12:54;;;;;;;6.90;3.90;;;;;;;;;;5034651;28;20053;-69
2023/08/16 12:15:27;;;;;;;5.55;4.45;;;;;;;;;;5033566;28;20442;-68
2023/08/16 12:17:56;;;;;;;6.25;4.00;;;;;;;;;;5034276;28;20029;-69
2023/08/16 12:20:26;;;;;;;4.95;3.67;;;;;;;;;;5034433;28;20514;-69
2023/08/16 12:22:53;;;;;;;4.90;3.78;;;;;;;;;;5034226;28;20025;-69
2023/08/16 12:25:19;;;;;;;6.75;3.95;;;;;;;;;;5033935;28;20424;-70
2023/08/16 12:27:45;;;;;;;7.32;3.70;;;;;;;;;;5033592;28;20025;-69
2023/08/16 12:30:11;;;;;;;4.95;4.28;;;;;;;;;;5034744;28;20037;-69
2023/08/16 12:32:37;;;;;;;5.30;3.88;;;;;;;;;;5034243;28;20549;-69
2023/08/16 12:35:03;;;;;;;5.40;4.00;;;;;;;;;;5034070;28;20037;-69
2023/08/16 12:37:29;;;;;;;8.23;4.20;;;;;;;;;;5033450;28;20073;-69
2023/08/16 12:39:56;;;;;;;5.55;4.35;;;;;;;;;;5034993;28;20038;-69
2023/08/16 12:42:22;;;;;;;5.28;3.75;;;;;;;;;;5034123;28;20044;-70
2023/08/16 12:44:48;;;;;;;8.38;4.60;;;;;;;;;;5032426;28;20485;-69
2023/08/16 12:47:14;;;;;;;5.95;4.57;;;;;;;;;;5033921;28;20036;-69
2023/08/16 12:49:39;;;;;;;6.88;4.22;;;;;;;;;;5033463;28;20075;-70
2023/08/16 12:52:05;;;;;;;6.47;4.13;;;;;;;;;;5033975;28;20426;-69
2023/08/16 12:54:31;;;;;;;10.15;4.05;;;;;;;;;;5033907;28;20116;-69
2023/08/16 12:56:57;;;;;;;6.13;4.30;;;;;;;;;;5033663;28;20021;-69
2023/08/16 12:59:23;;;;;;;6.88;4.13;;;;;;;;;;5041928;28;20040;-68
2023/08/16 13:01:49;;;;;;;6.32;4.28;;;;;;;;;;5033960;28;20021;-68
2023/08/16 13:04:16;;;;;;;5.80;4.68;;;;;;;;;;5033243;28;20487;-69
2023/08/16 13:06:42;;;;;;;5.07;4.20;;;;;;;;;;5033140;28;20053;-69
2023/08/16 13:09:07;;;;;;;9.15;4.65;;;;;;;;;;5035097;28;20190;-67
2023/08/16 13:11:34;;;;;;;8.32;4.85;;;;;;;;;;5029890;28;20045;-69
2023/08/16 13:14:00;;;;;;;7.28;4.38;;;;;;;;;;5031341;28;20472;-68
2023/08/16 13:16:26;;;;;;;7.28;4.10;;;;;;;;;;5032967;28;20554;-69
2023/08/16 13:18:52;;;;;;;7.30;4.60;;;;;;;;;;5032489;28;20113;-69
2023/08/16 13:21:18;;;;;;;5.45;4.18;;;;;;;;;;5032449;28;20498;-69
2023/08/16 13:23:51;;;;;;;10.30;4.13;;;;;;;;;;5032951;28;20052;-68
2023/08/16 13:26:17;;;;;;;5.53;4.50;;;;;;;;;;5032711;28;20124;-69
2023/08/16 13:28:43;;;;;;;5.38;4.07;;;;;;;;;;5033213;28;20445;-68
2023/08/16 13:31:10;;;;;;;5.07;4.40;;;;;;;;;;5032969;28;20033;-68
2023/08/16 13:33:36;;;;;;;6.18;4.78;;;;;;;;;;5032516;28;20033;-70
2023/08/16 13:36:02;;;;;;;7.13;4.50;;;;;;;;;;5031697;28;20037;-69
2023/08/16 13:38:27;;;;;;;5.20;4.25;;;;;;;;;;5032859;28;20025;-68
2023/08/16 13:40:53;;;;;;;6.63;4.50;;;;;;;;;;5032613;28;20030;-68
2023/08/16 13:43:21;;;;;;;5.50;4.35;;;;;;;;;;5032747;28;20041;-69
2023/08/16 13:45:47;;;;;;;9.00;4.82;;;;;;;;;;5024591;28;20059;-69
2023/08/16 13:48:12;;;;;;;5.38;4.45;;;;;;;;;;5032551;28;20029;-70
2023/08/16 13:50:41;;;;;;;5.88;4.53;;;;;;;;;;5032918;28;20033;-68
2023/08/16 13:53:07;;;;;;;4.78;4.00;;;;;;;;;;5031586;28;20025;-69
2023/08/16 13:55:33;;;;;;;5.60;4.50;;;;;;;;;;5030773;28;20410;-69
2023/08/16 13:57:59;;;;;;;7.55;5.10;;;;;;;;;;5032192;28;20541;-69
2023/08/16 14:00:24;;;;;;;6.80;4.53;;;;;;;;;;5031474;28;20041;-69
2023/08/16 14:02:51;;;;;;;6.32;4.75;;;;;;;;;;5032404;28;20472;-69
2023/08/16 14:05:20;;;;;;;5.65;4.45;;;;;;;;;;5032511;28;20034;-67
2023/08/16 14:07:49;;;;;;;4.70;4.20;;;;;;;;;;5036891;28;20068;-68
2023/08/16 14:10:15;;;;;;;5.93;4.55;;;;;;;;;;5030957;28;20406;-69
2023/08/16 14:12:41;;;;;;;8.95;5.00;;;;;;;;;;5032047;28;20112;-68
2023/08/16 14:15:07;;;;;;;6.28;4.30;;;;;;;;;;5032039;28;20033;-67
2023/08/16 14:17:33;;;;;;;4.63;3.95;;;;;;;;;;5031821;28;20025;-68
2023/08/16 14:19:59;;;;;;;4.68;4.18;;;;;;;;;;5031703;28;20032;-67
2023/08/16 14:22:25;;;;;;;6.63;4.43;;;;;;;;;;5031970;28;20021;-68
2023/08/16 14:24:52;;;;;;;5.43;3.85;;;;;;;;;;5031923;28;20105;-70
2023/08/16 14:27:17;;;;;;;6.38;3.95;;;;;;;;;;5030833;28;20078;-68
2023/08/16 14:29:43;;;;;;;5.78;4.45;;;;;;;;;;5031782;28;20037;-69
2023/08/16 14:32:09;;;;;;;6.45;4.25;;;;;;;;;;5031466;28;20105;-69
2023/08/16 14:34:34;;;;;;;10.55;4.50;;;;;;;;;;5031976;28;20046;-68
2023/08/16 14:37:00;;;;;;;5.38;4.47;;;;;;;;;;5047211;28;20025;-68
2023/08/16 14:39:26;;;;;;;7.05;4.18;;;;;;;;;;5031737;28;20112;-69
2023/08/16 14:41:52;;;;;;;6.05;4.18;;;;;;;;;;5031802;28;20021;-70